Whitehead, Mississippi
Current Conditions -  °F | °C
As of 10:53 AM on Friday 28 Nov 2014 (Local Time) from KGWO Reporting Station
Clear Clear  
Wind Chill: 50°   Ceiling: Unl
Heat Index: 50°   Visibility: 10mi
Dew Point: 25°   Wind: 8mph
Humidity: 38%   Direction: 150°SSE
Pressure: 30.4"   Gusts: NA
Location:  33.8335°N, 90.2939°W
Report Text: KGWO 281653Z AUTO 15007KT 120V190 10SM CLR 10/M04 A3040 RMK AO2 SLP294 T01001039 TSNO
Loading
Personal Weather Stations






























Interactive Weather Map New forecast layout! Learn more

10-Day Weather Forecast

Advertisements
Track Severe Weather on mobile